createdAt,value
2017-03-28T00:00:19.471Z,69.026
2017-03-28T00:03:24.818Z,69.377
2017-03-28T00:06:30.206Z,69.419
2017-03-28T00:09:35.629Z,70.260
2017-03-28T00:12:40.990Z,69.511
2017-03-28T00:15:46.303Z,70.158
2017-03-28T00:18:51.544Z,70.276
2017-03-28T00:28:07.114Z,69.573
2017-03-28T00:31:12.563Z,69.291
2017-03-28T00:34:17.661Z,69.179
2017-03-28T00:37:23.030Z,70.288
2017-03-28T00:40:28.238Z,70.728
2017-03-28T00:43:33.578Z,71.631
2017-03-28T00:46:38.847Z,72.088
2017-03-28T00:49:44.229Z,72.334
2017-03-28T00:52:49.410Z,72.709
2017-03-28T00:55:54.510Z,73.665
2017-03-28T00:58:59.704Z,73.450
2017-03-28T01:02:05.111Z,73.684
2017-03-28T01:05:10.572Z,73.045
2017-03-28T01:08:15.950Z,72.105
2017-03-28T01:14:25.816Z,72.332
2017-03-28T01:20:35.763Z,72.424
2017-03-28T01:23:41.231Z,72.615
2017-03-28T01:26:46.724Z,72.583
2017-03-28T01:29:51.768Z,72.316
2017-03-28T01:32:57.150Z,71.983
2017-03-28T01:35:54.783Z,72.848
2017-03-28T01:39:08.422Z,72.836
2017-03-28T01:42:13.506Z,72.764
2017-03-28T01:45:18.896Z,72.337
2017-03-28T01:51:29.745Z,73.505
2017-03-28T01:54:35.081Z,74.076
2017-03-28T01:57:40.011Z,73.147
2017-03-28T02:00:37.481Z,74.466
2017-03-28T02:16:10.896Z,73.804
2017-03-28T02:19:16.057Z,73.085
2017-03-28T02:22:20.770Z,72.609
2017-03-28T02:25:18.411Z,72.668
2017-03-28T02:28:31.779Z,75.368
2017-03-28T02:31:37.123Z,75.099
2017-03-28T02:34:42.432Z,74.957
2017-03-28T02:37:47.659Z,75.390
2017-03-28T02:40:52.958Z,75.233
2017-03-28T02:43:58.306Z,74.055
2017-03-28T02:47:03.419Z,73.287
2017-03-28T02:50:08.612Z,72.840
2017-03-28T02:53:13.664Z,73.765
2017-03-28T02:56:18.994Z,76.152
2017-03-28T02:59:24.196Z,75.772
2017-03-28T03:02:29.434Z,74.748
2017-03-28T03:05:34.738Z,73.706
2017-03-28T03:11:45.735Z,77.030
2017-03-28T03:14:51.034Z,77.246
2017-03-28T03:17:56.387Z,77.567
2017-03-28T03:21:01.551Z,77.051
2017-03-28T03:30:17.720Z,76.243
2017-03-28T03:33:22.704Z,76.114
2017-03-28T03:36:28.067Z,76.165
2017-03-28T03:42:38.671Z,76.619
2017-03-28T03:45:43.751Z,76.377
2017-03-28T03:48:49.018Z,75.687
2017-03-28T03:51:54.113Z,76.129
2017-03-28T03:54:59.196Z,76.359
2017-03-28T04:01:09.988Z,76.034
2017-03-28T04:04:15.282Z,75.921
2017-03-28T04:07:20.511Z,76.072
2017-03-28T04:10:25.614Z,76.642
2017-03-28T04:13:30.858Z,76.543
2017-03-28T04:16:36.070Z,76.682
2017-03-28T04:19:41.361Z,77.743
2017-03-28T04:22:46.496Z,77.390
2017-03-28T04:25:51.731Z,77.881
2017-03-28T04:28:49.333Z,77.849
2017-03-28T04:32:02.304Z,78.220
2017-03-28T04:35:07.473Z,78.604
2017-03-28T04:38:12.487Z,78.287
2017-03-28T04:41:17.735Z,79.222
2017-03-28T04:53:38.626Z,79.886
2017-03-28T04:56:43.830Z,79.449
2017-03-28T04:59:49.063Z,79.555
2017-03-28T05:02:54.416Z,80.178
2017-03-28T05:05:59.585Z,80.307
2017-03-28T05:09:04.647Z,79.474
2017-03-28T05:12:09.775Z,80.251
2017-03-28T05:15:15.044Z,79.504
2017-03-28T05:18:19.920Z,79.570
2017-03-28T05:21:25.181Z,80.093
2017-03-28T05:24:30.208Z,79.939
2017-03-28T05:27:35.508Z,80.085
2017-03-28T05:30:40.638Z,79.379
2017-03-28T05:33:45.861Z,79.938
2017-03-28T05:36:51.036Z,80.337
2017-03-28T05:39:56.127Z,80.297
2017-03-28T05:43:01.295Z,80.523
2017-03-28T05:46:06.443Z,80.905
2017-03-28T05:49:11.694Z,81.004
2017-03-28T05:52:16.614Z,81.987
2017-03-28T05:58:27.349Z,82.170
2017-03-28T06:04:37.852Z,82.547
2017-03-28T06:07:43.386Z,82.858
2017-03-28T06:10:48.439Z,82.588
2017-03-28T06:13:53.744Z,82.972
2017-03-28T06:16:58.751Z,83.214
2017-03-28T06:20:03.927Z,83.548
2017-03-28T06:23:09.209Z,83.462
2017-03-28T06:26:14.345Z,83.982
2017-03-28T06:29:19.590Z,83.663
2017-03-28T06:35:29.623Z,83.781
2017-03-28T06:38:34.899Z,83.813
2017-03-28T06:41:40.283Z,83.624
2017-03-28T06:44:45.371Z,83.948
2017-03-28T06:50:56.184Z,83.951
2017-03-28T06:54:01.004Z,84.297
2017-03-28T06:57:06.045Z,84.307
2017-03-28T07:00:11.438Z,84.538
2017-03-28T07:03:16.560Z,85.137
2017-03-28T07:06:21.936Z,85.019
2017-03-28T07:09:27.177Z,85.533
2017-03-28T07:12:32.447Z,85.701
2017-03-28T07:15:37.833Z,85.970
2017-03-28T07:18:43.129Z,85.850
2017-03-28T07:21:48.454Z,85.735
2017-03-28T07:24:53.432Z,85.764
2017-03-28T07:27:58.886Z,85.985
2017-03-28T07:31:04.282Z,85.820
2017-03-28T07:37:14.968Z,85.730
2017-03-28T07:40:20.353Z,85.681
2017-03-28T07:43:25.802Z,84.970
2017-03-28T07:46:31.067Z,85.500
2017-03-28T07:49:36.339Z,85.795
2017-03-28T07:52:41.770Z,86.121
2017-03-28T07:58:51.474Z,84.795
2017-03-28T08:01:56.660Z,83.364
2017-03-28T08:05:01.999Z,83.505
2017-03-28T08:08:07.457Z,81.136
2017-03-28T08:11:12.868Z,80.642
2017-03-28T08:14:18.284Z,79.552
2017-03-28T08:17:23.751Z,78.541
2017-03-28T08:20:29.268Z,78.638
2017-03-28T08:23:34.494Z,77.538
2017-03-28T08:26:40.004Z,77.799
2017-03-28T08:29:45.337Z,78.608
2017-03-28T08:32:50.935Z,78.683
2017-03-28T08:35:55.575Z,78.629
2017-03-28T08:39:01.102Z,78.416
2017-03-28T08:42:06.370Z,75.237
2017-03-28T08:45:11.819Z,74.944
2017-03-28T08:48:17.290Z,73.016
2017-03-28T08:51:22.927Z,71.645
2017-03-28T08:54:28.429Z,69.462
2017-03-28T08:57:33.942Z,69.043
2017-03-28T09:00:39.333Z,69.844
2017-03-28T09:03:44.949Z,70.319
2017-03-28T09:06:50.433Z,69.171
2017-03-28T09:09:55.946Z,68.700
2017-03-28T09:13:01.591Z,67.904
2017-03-28T09:16:07.170Z,67.625
2017-03-28T09:19:12.688Z,67.955
2017-03-28T09:22:18.701Z,67.245
2017-03-28T09:25:24.358Z,66.771
2017-03-28T09:28:29.916Z,68.165
2017-03-28T09:31:35.552Z,64.672
2017-03-28T09:34:41.305Z,65.425
2017-03-28T09:37:46.460Z,65.212
2017-03-28T09:40:51.996Z,64.618
2017-03-28T09:43:57.260Z,63.497
2017-03-28T09:47:02.759Z,63.340
2017-03-28T09:50:08.408Z,63.341
2017-03-28T09:53:14.030Z,61.222
2017-03-28T09:56:19.321Z,58.905
2017-03-28T09:59:26.069Z,58.916
2017-03-28T10:02:26.167Z,57.887
2017-03-28T10:05:32.108Z,54.488
2017-03-28T10:08:37.949Z,52.402
2017-03-28T10:11:44.086Z,51.044
2017-03-28T10:14:50.082Z,50.146
2017-03-28T10:17:56.033Z,47.078
2017-03-28T10:24:08.316Z,44.877
2017-03-28T10:27:14.255Z,44.196
2017-03-28T10:30:20.186Z,43.460
2017-03-28T10:33:26.150Z,45.256
2017-03-28T10:36:32.079Z,43.111
2017-03-28T10:39:38.227Z,40.335
2017-03-28T10:42:44.238Z,40.326
2017-03-28T10:45:50.348Z,40.235
2017-03-28T10:48:56.200Z,39.440
2017-03-28T10:52:02.272Z,38.464
2017-03-28T10:58:14.837Z,34.381
2017-03-28T11:01:20.958Z,37.468
2017-03-28T11:04:27.019Z,37.021
2017-03-28T11:07:33.172Z,35.922
2017-03-28T11:10:39.379Z,35.208
2017-03-28T11:13:45.517Z,32.812
2017-03-28T11:16:51.452Z,32.937
2017-03-28T11:19:57.430Z,34.271
2017-03-28T11:23:03.220Z,33.082
2017-03-28T11:26:09.243Z,31.791
2017-03-28T11:29:15.269Z,31.500
2017-03-28T11:32:21.164Z,31.684
2017-03-28T11:35:27.269Z,31.524
2017-03-28T11:38:33.432Z,31.224
2017-03-28T11:41:39.762Z,30.690
2017-03-28T11:44:45.912Z,31.469
2017-03-28T11:47:51.784Z,30.753
2017-03-28T11:50:58.044Z,29.789
2017-03-28T11:54:04.108Z,29.731
2017-03-28T11:57:10.568Z,30.336
2017-03-28T12:00:16.781Z,29.467
2017-03-28T12:03:22.612Z,29.579
2017-03-28T12:06:28.921Z,28.399
2017-03-28T12:09:34.694Z,29.003
2017-03-28T12:12:41.044Z,27.355
2017-03-28T12:15:47.098Z,27.265
2017-03-28T12:18:53.364Z,27.047
2017-03-28T12:21:59.589Z,27.703
2017-03-28T12:25:05.825Z,27.201
2017-03-28T12:28:12.121Z,27.814
2017-03-28T12:31:18.385Z,26.703
2017-03-28T12:34:24.593Z,27.027
2017-03-28T12:37:30.881Z,28.757
2017-03-28T12:40:37.191Z,28.053
2017-03-28T12:43:43.439Z,28.337
2017-03-28T12:46:49.463Z,27.502
2017-03-28T12:49:55.737Z,26.773
2017-03-28T12:53:02.052Z,26.332
2017-03-28T12:56:08.208Z,26.550
2017-03-28T12:59:14.635Z,26.572
2017-03-28T13:02:20.770Z,26.181
2017-03-28T13:05:27.060Z,27.255
2017-03-28T13:08:33.416Z,26.834
2017-03-28T13:11:39.751Z,26.645
2017-03-28T13:14:45.814Z,26.271
2017-03-28T13:17:52.086Z,26.412
2017-03-28T13:20:58.578Z,26.330
2017-03-28T13:24:03.745Z,26.118
2017-03-28T13:27:09.914Z,26.916
2017-03-28T13:30:16.090Z,26.813
2017-03-28T13:33:22.414Z,26.330
2017-03-28T13:36:28.663Z,26.368
2017-03-28T13:39:34.867Z,26.318
2017-03-28T13:42:41.087Z,25.606
2017-03-28T13:45:47.308Z,26.580
2017-03-28T13:48:53.683Z,26.919
2017-03-28T13:51:59.774Z,25.241
2017-03-28T13:55:06.161Z,26.940
2017-03-28T13:58:11.727Z,26.606
2017-03-28T14:01:18.001Z,26.416
2017-03-28T14:04:24.136Z,27.039
2017-03-28T14:07:30.319Z,25.784
2017-03-28T14:10:36.509Z,27.067
2017-03-28T14:13:42.738Z,27.017
2017-03-28T14:16:48.475Z,27.733
2017-03-28T14:19:54.786Z,27.767
2017-03-28T14:23:01.180Z,26.719
2017-03-28T14:26:07.427Z,26.651
2017-03-28T14:29:13.592Z,26.156
2017-03-28T14:32:19.818Z,28.057
2017-03-28T14:35:26.016Z,27.420
2017-03-28T14:38:32.300Z,28.431
2017-03-28T14:41:38.598Z,27.958
2017-03-28T14:44:44.872Z,28.869
2017-03-28T14:47:51.141Z,29.627
2017-03-28T14:50:57.303Z,30.155
2017-03-28T14:54:03.270Z,27.823
2017-03-28T14:57:09.382Z,28.280
2017-03-28T15:00:15.555Z,29.433
2017-03-28T15:03:21.860Z,29.503
2017-03-28T15:06:28.122Z,29.464
2017-03-28T15:09:34.345Z,30.008
2017-03-28T15:12:40.532Z,28.407
2017-03-28T15:15:46.707Z,30.527
2017-03-28T15:18:52.619Z,29.395
2017-03-28T15:21:58.702Z,30.607
2017-03-28T15:25:04.553Z,30.855
2017-03-28T15:28:10.636Z,32.285
2017-03-28T15:31:16.407Z,34.452
2017-03-28T15:34:22.718Z,35.510
2017-03-28T15:37:28.964Z,35.306
2017-03-28T15:40:35.088Z,34.834
2017-03-28T15:43:41.272Z,35.771
2017-03-28T15:46:48.351Z,35.794
2017-03-28T15:49:54.565Z,36.177
2017-03-28T15:53:00.770Z,36.086
2017-03-28T15:56:06.952Z,36.649
2017-03-28T15:59:13.175Z,36.834
2017-03-28T16:02:19.361Z,38.096
2017-03-28T16:05:25.064Z,37.996
2017-03-28T16:08:31.341Z,38.640
2017-03-28T16:11:37.524Z,38.118
2017-03-28T16:14:43.775Z,37.333
2017-03-28T16:17:49.795Z,37.812
2017-03-28T16:20:48.294Z,38.376
2017-03-28T16:24:02.321Z,38.835
2017-03-28T16:27:08.491Z,38.656
2017-03-28T16:30:14.629Z,38.197
2017-03-28T16:33:20.789Z,37.801
2017-03-28T16:36:26.737Z,38.069
2017-03-28T16:39:32.901Z,39.248
2017-03-28T16:42:39.047Z,40.111
2017-03-28T16:45:45.067Z,40.688
2017-03-28T16:48:51.172Z,41.309
2017-03-28T16:55:03.727Z,41.294
2017-03-28T16:58:09.836Z,41.321
2017-03-28T17:01:15.994Z,41.540
2017-03-28T17:04:22.151Z,42.035
2017-03-28T17:07:28.210Z,41.775
2017-03-28T17:10:34.376Z,42.673
2017-03-28T17:13:39.409Z,42.694
2017-03-28T17:16:45.578Z,42.769
2017-03-28T17:19:51.603Z,43.363
2017-03-28T17:22:57.676Z,43.685
2017-03-28T17:26:03.616Z,44.779
2017-03-28T17:29:09.592Z,46.200
2017-03-28T17:35:20.778Z,47.038
2017-03-28T17:38:26.793Z,46.591
2017-03-28T17:41:32.831Z,46.162
2017-03-28T17:44:38.821Z,46.335
2017-03-28T17:47:44.633Z,46.678
2017-03-28T17:50:50.699Z,46.292
2017-03-28T17:53:56.660Z,46.305
2017-03-28T17:57:02.555Z,46.362
2017-03-28T18:00:08.237Z,46.638
2017-03-28T18:03:14.157Z,45.988
2017-03-28T18:06:19.665Z,45.417
2017-03-28T18:09:25.708Z,45.429
2017-03-28T18:12:31.335Z,45.419
2017-03-28T18:15:37.349Z,46.498
2017-03-28T18:21:48.331Z,46.940
2017-03-28T18:24:54.074Z,46.286
2017-03-28T18:28:00.048Z,47.637
2017-03-28T18:31:06.031Z,48.417
2017-03-28T18:34:11.868Z,47.966
2017-03-28T18:37:11.863Z,48.080
2017-03-28T18:40:24.076Z,48.133
2017-03-28T18:43:30.035Z,49.250
2017-03-28T18:49:41.613Z,50.397
2017-03-28T18:52:47.378Z,49.664
2017-03-28T18:55:53.204Z,50.296
2017-03-28T18:58:59.125Z,50.447
2017-03-28T19:02:04.934Z,50.233
2017-03-28T19:05:10.730Z,50.655
2017-03-28T19:08:16.670Z,51.351
2017-03-28T19:11:22.386Z,52.348
2017-03-28T19:14:28.300Z,51.559
2017-03-28T19:17:34.298Z,52.447
2017-03-28T19:20:39.814Z,52.248
2017-03-28T19:23:45.615Z,53.043
2017-03-28T19:26:51.323Z,52.349
2017-03-28T19:29:57.229Z,53.126
2017-03-28T19:33:02.925Z,53.785
2017-03-28T19:36:08.709Z,54.373
2017-03-28T19:39:14.569Z,54.195
2017-03-28T19:42:20.458Z,55.040
2017-03-28T19:48:32.448Z,55.231
2017-03-28T19:51:38.262Z,55.096
2017-03-28T19:54:44.020Z,54.618
2017-03-28T19:57:49.889Z,54.202
2017-03-28T20:00:55.678Z,53.853
2017-03-28T20:04:00.899Z,54.696
2017-03-28T20:07:06.675Z,55.174
2017-03-28T20:10:12.613Z,54.862
2017-03-28T20:13:18.286Z,55.418
2017-03-28T20:16:24.068Z,55.891
2017-03-28T20:19:29.634Z,56.340
2017-03-28T20:22:35.410Z,56.804
2017-03-28T20:25:41.220Z,56.339
2017-03-28T20:28:46.998Z,56.718
2017-03-28T20:31:52.724Z,56.648
2017-03-28T20:34:58.337Z,57.136
2017-03-28T20:38:04.081Z,56.554
2017-03-28T20:41:09.719Z,56.673
2017-03-28T20:44:15.532Z,57.083
2017-03-28T20:47:21.030Z,56.892
2017-03-28T20:50:26.723Z,57.166
2017-03-28T20:53:32.039Z,57.673
2017-03-28T20:56:37.755Z,57.985
2017-03-28T20:59:43.307Z,58.509
2017-03-28T21:02:48.953Z,58.711
2017-03-28T21:05:54.546Z,58.903
2017-03-28T21:09:00.158Z,58.908
2017-03-28T21:12:05.923Z,58.651
2017-03-28T21:15:11.561Z,58.658
2017-03-28T21:18:17.105Z,58.959
2017-03-28T21:21:22.844Z,59.318
2017-03-28T21:27:34.568Z,59.427
2017-03-28T21:30:40.304Z,59.149
2017-03-28T21:33:46.017Z,59.097
2017-03-28T21:36:51.444Z,59.592
2017-03-28T21:39:56.830Z,59.649
2017-03-28T21:43:02.466Z,59.546
2017-03-28T21:46:08.079Z,59.895
2017-03-28T21:55:25.239Z,60.273
2017-03-28T21:58:30.855Z,60.577
2017-03-28T22:01:36.402Z,60.705
2017-03-28T22:04:41.939Z,61.075
2017-03-28T22:07:47.227Z,61.614
2017-03-28T22:13:57.531Z,62.338
2017-03-28T22:17:03.163Z,62.373
2017-03-28T22:20:08.292Z,61.881
2017-03-28T22:23:13.825Z,61.951
2017-03-28T22:26:19.331Z,61.974
2017-03-28T22:29:24.931Z,61.902
2017-03-28T22:32:30.381Z,61.733
2017-03-28T22:38:41.842Z,61.038
2017-03-28T22:41:47.448Z,61.250
2017-03-28T22:44:53.002Z,61.355
2017-03-28T22:47:58.599Z,60.968
2017-03-28T22:51:04.139Z,60.938
2017-03-28T22:54:09.727Z,60.833
2017-03-28T22:57:15.242Z,59.758
2017-03-28T23:00:20.844Z,59.133
2017-03-28T23:03:26.425Z,58.793
2017-03-28T23:06:31.949Z,58.112
2017-03-28T23:09:37.592Z,57.630
2017-03-28T23:12:43.073Z,57.066
2017-03-28T23:15:48.609Z,57.213
2017-03-28T23:18:54.080Z,56.983
2017-03-28T23:21:59.705Z,56.659
2017-03-28T23:25:05.257Z,56.867
2017-03-28T23:28:10.818Z,56.812
2017-03-28T23:31:16.321Z,56.593
2017-03-28T23:34:21.736Z,56.501
2017-03-28T23:37:21.341Z,56.960
2017-03-28T23:40:33.368Z,57.408
2017-03-28T23:43:38.751Z,57.892
2017-03-28T23:52:54.689Z,58.165
2017-03-28T23:56:00.190Z,58.685
2017-03-28T23:58:57.888Z,58.565
